Aviation Digital Data Service (ADDS)

Output produced by METARs form (2210 UTC 18 January 2017)
found at http://aviationweather.gov/adds/metars/
 
KDAG 182150Z AUTO 07003KT 10SM CLR 13/M02 A3001 RMK AO2 SLP157 T01281017
KDAG 181728Z 1818/1918 24006KT P6SM BKN250 
     FM182300 24014KT P6SM BKN150 
     FM190300 24014G22KT P6SM -SHRA SCT040 OVC080 
     FM190600 24010KT P6SM -SHRA SCT040 OVC080
       
KEDW 182158Z 23019G24KT 70SM FEW100 SCT180 OVC230 13/M02 A2998 RMK AO2A PK WND 23028/32 SLP155 T01331018
TAF AMD KEDW 182024Z 1820/1924 23012KT 9999 SCT150 SCT200 BKN250 520009 QNH3002INS 
     TEMPO 1820/1901 24025G35KT 530009 
     BECMG 1900/1901 23015G25KT 9999 VCSH SCT050 BKN080 OVC150 610809 520009 QNH3002INS 
     TEMPO 1901/1904 24025G35KT 530009 
     BECMG 1903/1904 23015G25KT 8000 -SHRA SCT025 BKN050 OVC080 610609 520009 QNH2990INS 
     TEMPO 1904/1906 24025G35KT 530009 
     BECMG 1911/1912 23012G18KT 9000 -SHRA SCT025 OVC050 610609 QNH2988INS TS OMTNS 
     BECMG 1918/1919 24015G25KT 9999 NSW SCT025 SCT050 SCT100 520009 QNH2981INS 
     BECMG 1921/1922 23025G35KT 9999 SCT050 SCT100 530009 QNH2981INS TX11/1821Z TN02/1914Z
       
KVCV 182155Z AUTO 19012KT 10SM SCT100 14/M02 A3002 RMK AO2
KONT 182153Z 28010KT 10SM FEW040 FEW140 OVC260 14/08 A3008 RMK AO2 SLP188 T01440078
KONT 181736Z 1818/1924 VRB03KT P6SM SCT020 BKN250 
     FM190400 29008KT P6SM VCSH BKN025 
     FM191000 25013KT 4SM RA BR BKN015 OVC025 
     FM191900 24009KT P6SM VCSH SCT020
       
KNID 182156Z VRB04KT 10SM BKN110 11/M07 A2996 RMK AO2 SLP151 T01111067 $
TAF COR KNID 1819/1915 VRB05KT 9999 FEW100 SCT180 BKN250 QNH3003INS 
     BECMG 1820/1822 19008G16KT 9999 FEW060 SCT100 BKN220 QNH2998INS 
     BECMG 1900/1902 20014G26KT 9999 VCSHRA FEW025 BKN060 OVC100 641009 641903 520006 540609 QNH2986INS 
     TEMPO 1902/1908 9999 -SHRA SCT025 BKN040 OVC060 
     BECMG 1907/1908 20014G26KT 8000 -SHRA BR FEW024 BKN040 OVC060 640909 641803 520004 540409 QNH2986INS T15/1823Z T05/1914Z COR 1937
       
KSNA 182153Z 23005KT 10SM FEW025 BKN250 15/09 A3010 RMK AO2 SLP193 T01500089
KSNA 181736Z 1818/1918 VRB05KT P6SM BKN020 
     TEMPO 1820/1824 SCT025 
     FM190400 18007KT P6SM VCSH BKN025 OVC035 
     FM190900 14013G20KT 4SM RA BR BKN015 OVC025
       
KSAN 182151Z 27004KT 10SM FEW020 BKN200 BKN250 17/09 A3010 RMK AO2 SLP192 T01670089
KSAN 182107Z 1821/1924 27008KT P6SM FEW015 BKN040 
     TEMPO 1821/1824 BKN020 
     FM190000 26007KT P6SM BKN035 
     FM190400 24007KT P6SM VCSH BKN025 
     FM190800 18010KT P6SM VCSH BKN025 
     FM191300 18013G20KT 4SM RA BR BKN015 
     FM192100 26014KT P6SM VCSH BKN020
       
KNXP 182156Z 13009KT 10SM FEW120 SCT200 14/M04 A3007 RMK AO2 SLP167 T01441039
TAF KNXP 1821/1921 VRB06KT 9999 SCT200 QNH3006INS 
     BECMG 1900/1902 22009KT 9999 SCT080 BKN120 OVC200 QNH3006INS 
     TEMPO 1903/1909 24010G15KT 
     FM190630 26015G25KT 9000 RA BKN050 OVC120 QNH2994INS 
     BECMG 1917/1919 VRB06KT NSW SCT080 BKN120 OVC200 QNH2987INS T16/1823Z T07/1914Z
       
KPSP 182153Z 12008G15KT 10SM CLR 18/01 A3002 RMK AO2 SLP167 T01830011
KPSP 181736Z 1818/1918 VRB06KT P6SM SCT200 
     FM190900 18007KT P6SM VCSH BKN035 
     FM191300 VRB06KT P6SM -RA BKN020
       
KLAX 182153Z COR 27008KT 10SM SCT027 BKN140 14/09 A3010 RMK AO2 SLP194 T01440089
KLAX 182111Z 1821/1924 26005KT 6SM HZ BKN025 BKN120 
     TEMPO 1821/1823 SCT025 
     FM190300 18010KT P6SM -SHRA BKN015 OVC090 
     FM190600 13015G25KT 2SM +RA BR BKN007 OVC012 
     FM191000 15012G22KT 3SM RA BR BKN007 OVC012 
     FM191500 21014G25KT 3SM TSRA BR BKN005 OVC010CB 
     FM192300 25018KT P6SM VCSH OVC015
       
KCNO 182153Z 26008KT 10SM FEW050 BKN150 17/08 A3009 RMK AO2 SLP190 T01670083
KSMO 182151Z 25006KT 10SM CLR 14/09 A3011 RMK AO2 SLP194 T01390089
KSMO 182035Z 1821/1918 20005KT P6SM BKN025 BKN120 
     FM182300 23010KT P6SM VCSH BKN020 BKN120 
     FM190400 19008KT P6SM -SHRA OVC015 
     FM190600 11012KT 3SM +RA BR BKN008 OVC015 
     FM191000 12012G22KT 3SM RA BR OVC010 
     FM191500 21014G25KT 3SM TSRA BR BKN005 OVC010CB
       
KLGB 182153Z 21007KT 10SM CLR 15/08 A3010 RMK AO2 SLP193 T01500083
KLGB 181741Z 1818/1918 11006KT 6SM BR BKN021 BKN120 
     FM182100 19006KT P6SM SCT025 BKN150 
     FM190300 17008KT P6SM -SHRA BKN015 OVC090 
     FM190600 12012G25KT 3SM +RA BR BKN008 OVC015 
     FM191000 13015G22KT 3SM RA BR OVC007 
     FM191500 21014G25KT 3SM TSRA BR BKN005 OVC010CB
       
KVNY 182151Z 17005KT 10SM CLR 14/08 A3008 RMK AO2 SLP184 T01440083
KVNY 181741Z 1818/1918 VRB03KT P6SM SCT015 BKN120 
     FM182000 14008KT P6SM SCT025 BKN150 
     FM190300 15009KT P6SM -SHRA OVC015 
     FM190600 13015G25KT 3SM +RA BR BKN008 OVC015 
     FM191100 15013G25KT 3SM RA BR OVC007 
     FM191500 21014G25KT 3SM TSRA BR BKN005 OVC010CB
       
KBUR 182153Z 19006KT 6SM HZ CLR 14/07 A3008 RMK AO2 SLP179 T01390072
KBUR 182034Z 1821/1918 17007KT 4SM HZ BKN120 
     FM182200 17008KT P6SM SCT025 BKN150 
     FM190300 16010KT P6SM -SHRA BKN015 OVC090 
     FM190600 13012G22KT 3SM +RA BR BKN008 OVC015 
     FM191000 15010G22KT 3SM RA BR OVC007 
     FM191500 21014G25KT 3SM TSRA BR BKN005 OVC010CB
       
KBFL 182154Z 35012KT 10SM OVC095 12/05 A3007 RMK AO2 RAB18E49 SLP183 P0000 T01220050
KBFL 181737Z 1818/1918 13003KT P6SM SCT120 BKN200 
     FM190000 VRB05KT 5SM HZ VCSH BKN050 OVC100 
     FM190600 12012G18KT 3SM -RA BR SCT030 OVC050 
     TEMPO 1908/1912 18012G20KT 2SM SHRA BR BKN030 OVC050
       
KPMD 182153Z AUTO 23013G21KT 10SM FEW095 SCT120 14/M02 A3002 RMK AO2 SLP165 T01391017
KPMD 181741Z 1818/1918 VRB03KT P6SM BKN120 
     FM182000 23015KT P6SM BKN120 
     FM182300 23020G30KT P6SM BKN050 BKN100 
     FM190500 22020G30KT P6SM -SHRA OVC050 
     FM191200 22020G30KT 4SM +RA BR BKN015 OVC030 
     FM191600 21014G25KT 3SM TSRA BR BKN005 OVC010CB
       
KOXR 182202Z 24007KT 10SM BKN030 OVC100 15/08 A3014 RMK AO2 T01500078
KOXR 181741Z 1818/1918 07006KT P6SM BKN020 BKN120 
     FM182100 13007KT P6SM VCSH SCT020 BKN120 
     FM190200 12010KT P6SM -SHRA OVC015 
     FM190500 09015G25KT 4SM +RA BKN010 OVC015 
     FM190900 11015G25KT 2SM RA BR OVC007 
     FM191400 21014G25KT 3SM TSRA BR BKN005 OVC010CB
       
KWJF 182156Z 23014G22KT 10SM OVC120 13/01 A3002 RMK AO2 SLP176 T01280006
KWJF 181741Z 1818/1918 VRB03KT P6SM BKN120 
     FM182000 23015KT P6SM BKN120 
     FM182300 23020G30KT P6SM BKN050 BKN100 
     FM190500 23015KT P6SM -SHRA OVC050 
     FM191200 21020G30KT 4SM +RA BR BKN015 OVC030 
     FM191600 21014G25KT 3SM TSRA BR BKN005 OVC010CB
       
KCMA 182155Z 23007KT 10SM OVC027 14/08 A3013 RMK AO2 SLP212 T01390083
KCMA 181741Z 1818/1918 11005KT P6SM BKN024 BKN120 
     FM182200 13007KT P6SM VCSH SCT020 BKN110 
     FM190200 12010KT P6SM -SHRA OVC015 
     FM190500 09015G25KT 4SM +RA BR BKN010 OVC015 
     FM190900 11015G25KT 2SM RA BR OVC007 
     FM191400 21014G25KT 3SM TSRA BR BKN005 OVC010CB
       
KFAT 182153Z 35006KT 5SM -RA BKN060 OVC080 12/07 A3012 RMK AO2 RAB37 SLP199 P0000 T01170072
KFAT 181737Z 1818/1918 11003KT P6SM SCT050 BKN100 
     FM182100 14010G17KT 4SM -RA BR BKN050 OVC100 
     TEMPO 1902/1906 14017G25KT 2SM SHRA BR BKN030 OVC050 
     FM190600 14010G20KT 3SM -SHRA BR SCT015 OVC030
       
KEED 182156Z AUTO 15004KT 10SM CLR 17/M03 A3003 RMK AO2 SLP158 T01721028
KEED 181728Z 1818/1918 VRB04KT P6SM FEW250 
     FM182100 19007KT P6SM SCT250 
     FM190300 23008KT P6SM SCT080 BKN150 
     FM190800 27008KT P6SM -SHRA SCT050 OVC080
       
KLSV 182158Z AUTO 08007KT 10SM CLR 13/M04 A3000 RMK AO2 SLP162 T01251045
TAF KLSV 181502Z 1815/1921 06009KT 9999 FEW200 QNH2996INS 
     BECMG 1901/1902 VRB06KT 9999 SCT100 QNH2994INS 
     BECMG 1905/1906 19012G18KT 9999 BKN060 620609 QNH2980INS 
     TEMPO 1906/1912 8000 -SHRA BKN030 
     BECMG 1911/1912 19012G18KT 6000 -SHRA OVC030 610509 QNH2976INS TX13/1821Z TNM01/1815Z
       
KLAS 182156Z 06007KT 10SM BKN250 12/M06 A2999 RMK AO2 SLP153 T01221056
KLAS 182047Z 1821/1918 08007KT P6SM BKN250 
     FM190200 20008KT P6SM SCT080 OVC150 
     FM190500 21011G17KT P6SM -SHRA BKN050 OVC080
       
KHII 182155Z AUTO 13003KT 10SM CLR 17/M02 A3004 RMK AO2
KIFP 182155Z AUTO 22006KT 10SM CLR 16/M03 A3003 RMK AO2
KIFP 181728Z 1818/1918 VRB04KT P6SM FEW250 
     FM182100 19008KT P6SM SCT250 
     FM190300 17008KT P6SM SCT080 BKN150 
     FM190800 17011KT P6SM -SHRA SCT050 OVC080